Time;durP1;ratioP1;P1;durP2;ratioP2;P2;SDS_P1;SDS_P2;PMS_P1;PMS_P2;Temp;Humidity;BMP_temperature;BMP_pressure;BME280_temperature;BME280_humidity;BME280_pressure;Samples;Min_cycle;Max_cycle;Signal;HPM_P1;HPM_P2
2022/11/13 00:00:43;;;;;;;;;;;;;;;5.23;100.00;101506.66;4995358;28;19948;-83
2022/11/13 00:03:28;;;;;;;;;;;;;;;5.27;100.00;101498.47;5000276;28;19940;-83
2022/11/13 00:06:12;;;;;;;;;;;;;;;5.28;100.00;101505.59;5009231;28;19983;-83
2022/11/13 00:08:56;;;;;;;;;;;;;;;5.28;100.00;101500.88;5010074;28;20410;-82
2022/11/13 00:11:40;;;;;;;;;;;;;;;5.34;100.00;101498.63;5010950;28;19928;-82
2022/11/13 00:14:24;;;;;;;;;;;;;;;5.39;100.00;101501.84;5010669;28;19956;-79
2022/11/13 00:17:08;;;;;;;;;;;;;;;5.33;100.00;101508.84;5007524;28;19932;-79
2022/11/13 00:19:52;;;;;;;;;;;;;;;5.41;100.00;101507.81;5010024;28;19979;-82
2022/11/13 00:22:36;;;;;;;;;;;;;;;5.51;100.00;101501.66;5009634;28;20275;-82
2022/11/13 00:25:20;;;;;;;;;;;;;;;5.59;100.00;101506.13;4991874;28;19929;-83
2022/11/13 00:28:04;;;;;;;;;;;;;;;5.67;100.00;101511.75;5008771;28;19960;-82
2022/11/13 00:30:48;;;;;;;;;;;;;;;5.74;100.00;101512.69;5008728;28;19929;-82
2022/11/13 00:33:32;;;;;;;;;;;;;;;5.83;100.00;101504.16;5010496;28;19929;-82
2022/11/13 00:36:17;;;;;;;;;;;;;;;5.86;100.00;101508.94;5008657;28;19982;-83
2022/11/13 00:39:01;;;;;;;;;;;;;;;5.89;100.00;101505.47;5009899;28;20678;-82
2022/11/13 00:41:45;;;;;;;;;;;;;;;5.84;100.00;101505.75;5014995;28;19984;-82
2022/11/13 00:44:29;;;;;;;;;;;;;;;5.88;100.00;101503.88;5014679;28;19944;-82
2022/11/13 00:47:12;;;;;;;;;;;;;;;5.89;100.00;101497.22;5013922;28;19983;-82
2022/11/13 00:49:56;;;;;;;;;;;;;;;5.66;100.00;101496.41;5014916;28;20003;-81
2022/11/13 00:52:40;;;;;;;;;;;;;;;5.60;100.00;101502.22;5014457;28;20287;-82
2022/11/13 00:55:24;;;;;;;;;;;;;;;5.61;100.00;101508.53;5014285;28;19928;-82
2022/11/13 00:58:08;;;;;;;;;;;;;;;5.61;100.00;101500.28;4996078;28;19929;-82
2022/11/13 01:00:52;;;;;;;;;;;;;;;5.56;100.00;101498.63;5014448;28;19967;-82
2022/11/13 01:03:36;;;;;;;;;;;;;;;5.48;100.00;101493.34;4993882;28;20397;-82
2022/11/13 01:06:21;;;;;;;;;;;;;;;5.37;100.00;101498.69;5013047;28;20438;-82
2022/11/13 01:09:05;;;;;;;;;;;;;;;5.44;100.00;101487.00;5008006;28;19928;-82
2022/11/13 01:11:49;;;;;;;;;;;;;;;5.42;100.00;101498.38;5012538;28;20409;-82
2022/11/13 01:14:33;;;;;;;;;;;;;;;5.41;100.00;101493.25;5013624;28;19929;-82
2022/11/13 01:17:17;;;;;;;;;;;;;;;5.45;100.00;101478.38;4997465;28;20385;-82
2022/11/13 01:20:01;;;;;;;;;;;;;;;5.40;100.00;101494.41;5013614;28;19991;-82
2022/11/13 01:22:44;;;;;;;;;;;;;;;5.38;100.00;101492.00;5012196;28;19936;-82
2022/11/13 01:25:29;;;;;;;;;;;;;;;5.49;100.00;101483.94;5013625;28;19928;-82
2022/11/13 01:28:13;;;;;;;;;;;;;;;5.52;100.00;101473.00;4995841;28;19979;-82
2022/11/13 01:30:57;;;;;;;;;;;;;;;5.61;100.00;101475.50;5013308;28;20385;-82
2022/11/13 01:33:41;;;;;;;;;;;;;;;5.64;100.00;101469.25;5006870;28;19933;-82
2022/11/13 01:36:26;;;;;;;;;;;;;;;5.70;100.00;101472.50;5012639;28;19967;-82
2022/11/13 01:39:10;;;;;;;;;;;;;;;5.69;100.00;101470.91;5013550;28;19944;-82
2022/11/13 01:41:54;;;;;;;;;;;;;;;5.70;100.00;101461.47;5011278;28;19931;-82
2022/11/13 01:44:55;;;;;;;;;;;;;;;5.60;100.00;101457.38;5013660;28;19951;-83
2022/11/13 01:47:39;;;;;;;;;;;;;;;5.55;100.00;101452.97;5010627;28;19975;-84
2022/11/13 01:50:22;;;;;;;;;;;;;;;5.58;100.00;101452.25;5012527;28;19928;-79
2022/11/13 01:53:06;;;;;;;;;;;;;;;5.59;100.00;101453.84;5007308;28;20414;-83
2022/11/13 01:55:50;;;;;;;;;;;;;;;5.64;100.00;101453.53;5004895;28;19991;-83
2022/11/13 01:58:34;;;;;;;;;;;;;;;5.71;100.00;101463.06;5012577;28;20442;-84
2022/11/13 02:04:08;;;;;;;;;;;;;;;5.62;100.00;101450.34;5064102;23;19936;-84
2022/11/13 02:07:03;;;;;;;;;;;;;;;5.73;100.00;101449.72;5014709;28;19987;-85
2022/11/13 02:09:49;;;;;;;;;;;;;;;5.76;100.00;101449.78;5025801;28;19927;-86
2022/11/13 02:12:37;;;;;;;;;;;;;;;5.77;100.00;101461.59;5015388;28;20023;-86
2022/11/13 02:15:23;;;;;;;;;;;;;;;5.80;100.00;101449.81;5012965;28;19928;-86
2022/11/13 02:18:07;;;;;;;;;;;;;;;5.86;100.00;101442.84;5016214;28;19927;-86
2022/11/13 02:20:51;;;;;;;;;;;;;;;5.83;100.00;101444.38;5031094;28;19927;-86
2022/11/13 02:23:49;;;;;;;;;;;;;;;5.84;100.00;101450.69;5030453;28;20319;-86
2022/11/13 02:26:33;;;;;;;;;;;;;;;5.87;100.00;101444.44;5017584;28;19947;-86
2022/11/13 02:29:17;;;;;;;;;;;;;;;5.86;100.00;101437.34;5024706;28;19983;-86
2022/11/13 02:32:01;;;;;;;;;;;;;;;5.81;100.00;101430.19;5031239;28;19932;-86
2022/11/13 02:34:45;;;;;;;;;;;;;;;5.75;100.00;101425.34;5030068;28;19929;-86
2022/11/13 02:37:29;;;;;;;;;;;;;;;5.78;100.00;101410.88;5030217;28;20014;-86
2022/11/13 02:40:13;;;;;;;;;;;;;;;5.81;100.00;101415.63;5030037;28;19979;-86
2022/11/13 02:42:57;;;;;;;;;;;;;;;5.83;100.00;101416.03;5028447;28;19974;-86
2022/11/13 02:45:41;;;;;;;;;;;;;;;5.87;100.00;101416.91;5028816;28;19955;-86
2022/11/13 02:48:25;;;;;;;;;;;;;;;5.82;100.00;101419.97;5028469;28;20371;-86
2022/11/13 02:51:09;;;;;;;;;;;;;;;5.85;100.00;101421.97;5028289;28;19936;-86
2022/11/13 02:53:53;;;;;;;;;;;;;;;5.83;100.00;101432.56;5029218;28;20296;-86
2022/11/13 02:56:37;;;;;;;;;;;;;;;5.87;100.00;101438.94;5030664;28;20441;-86
2022/11/13 02:59:21;;;;;;;;;;;;;;;5.93;100.00;101435.50;5025158;28;19928;-86
2022/11/13 03:02:05;;;;;;;;;;;;;;;5.92;100.00;101433.13;5021001;28;19932;-86
2022/11/13 03:04:49;;;;;;;;;;;;;;;5.92;100.00;101431.16;5028749;28;19928;-86
2022/11/13 03:07:33;;;;;;;;;;;;;;;5.93;100.00;101431.97;5015297;28;19928;-87
2022/11/13 03:10:17;;;;;;;;;;;;;;;5.96;100.00;101431.22;5028758;28;19928;-86
2022/11/13 03:13:01;;;;;;;;;;;;;;;5.98;100.00;101429.69;5027895;28;20297;-86
2022/11/13 03:15:45;;;;;;;;;;;;;;;5.96;100.00;101415.47;5031306;28;19931;-86
2022/11/13 03:18:29;;;;;;;;;;;;;;;5.93;100.00;101420.94;5030322;28;20415;-87
2022/11/13 03:21:14;;;;;;;;;;;;;;;5.88;100.00;101429.53;5028208;28;19975;-86
2022/11/13 03:23:57;;;;;;;;;;;;;;;5.85;100.00;101427.50;5015345;28;19943;-86
2022/11/13 03:26:41;;;;;;;;;;;;;;;5.87;100.00;101427.94;5031325;28;20497;-86
2022/11/13 03:29:25;;;;;;;;;;;;;;;5.89;100.00;101428.38;5028970;28;19952;-86
2022/11/13 03:32:09;;;;;;;;;;;;;;;5.90;100.00;101421.69;5022261;28;19983;-86
2022/11/13 03:34:53;;;;;;;;;;;;;;;5.87;100.00;101427.94;5025968;28;19936;-86
2022/11/13 03:37:37;;;;;;;;;;;;;;;5.84;100.00;101425.88;5026030;28;20340;-86
2022/11/13 03:40:21;;;;;;;;;;;;;;;5.85;100.00;101419.22;5023596;28;19936;-86
2022/11/13 03:43:05;;;;;;;;;;;;;;;5.85;100.00;101430.25;5029750;28;20391;-86
2022/11/13 03:45:49;;;;;;;;;;;;;;;5.78;100.00;101414.41;5027735;28;19928;-86
2022/11/13 03:48:33;;;;;;;;;;;;;;;5.74;100.00;101418.28;5030326;28;20426;-86
2022/11/13 03:51:17;;;;;;;;;;;;;;;5.71;100.00;101419.81;5029161;28;19978;-86
2022/11/13 03:54:03;;;;;;;;;;;;;;;5.72;100.00;101417.84;5028525;28;20226;-87
2022/11/13 03:56:47;;;;;;;;;;;;;;;5.70;100.00;101433.94;5030176;28;19928;-86
2022/11/13 03:59:31;;;;;;;;;;;;;;;5.64;100.00;101431.50;5026702;28;19928;-86
2022/11/13 04:02:15;;;;;;;;;;;;;;;5.61;100.00;101435.00;5024577;28;19967;-86
2022/11/13 04:04:59;;;;;;;;;;;;;;;5.58;100.00;101432.97;5009841;28;19976;-86
2022/11/13 04:07:43;;;;;;;;;;;;;;;5.60;100.00;101430.66;5009325;28;19936;-86
2022/11/13 04:10:27;;;;;;;;;;;;;;;5.53;100.00;101429.75;5008799;28;20209;-86
2022/11/13 04:13:10;;;;;;;;;;;;;;;5.38;100.00;101433.44;5008927;28;19991;-86
2022/11/13 04:15:54;;;;;;;;;;;;;;;5.33;100.00;101440.06;5009379;28;19944;-86
2022/11/13 04:18:38;;;;;;;;;;;;;;;5.22;100.00;101436.31;5010457;28;19932;-86
2022/11/13 04:21:22;;;;;;;;;;;;;;;5.26;100.00;101437.16;5009915;28;19991;-86
2022/11/13 04:24:06;;;;;;;;;;;;;;;5.31;100.00;101434.09;5009640;28;19972;-87
2022/11/13 04:26:50;;;;;;;;;;;;;;;5.34;100.00;101430.63;5009970;28;20289;-86
2022/11/13 04:29:34;;;;;;;;;;;;;;;5.39;100.00;101429.50;4999445;28;20292;-86
2022/11/13 04:32:18;;;;;;;;;;;;;;;5.37;100.00;101427.16;5007638;28;19941;-86
2022/11/13 04:35:02;;;;;;;;;;;;;;;5.43;100.00;101433.91;5006111;28;19979;-86
2022/11/13 04:37:46;;;;;;;;;;;;;;;5.42;100.00;101424.06;5010577;28;19983;-86
2022/11/13 04:40:30;;;;;;;;;;;;;;;5.45;100.00;101428.06;5009194;28;19928;-86
2022/11/13 04:43:14;;;;;;;;;;;;;;;5.49;100.00;101428.91;5009707;28;20340;-86
2022/11/13 04:45:58;;;;;;;;;;;;;;;5.50;100.00;101427.75;5009991;28;19928;-86
2022/11/13 04:48:41;;;;;;;;;;;;;;;5.49;100.00;101415.94;5010260;28;19928;-86
2022/11/13 04:51:26;;;;;;;;;;;;;;;5.53;100.00;101416.78;5008088;28;20335;-86
2022/11/13 04:54:09;;;;;;;;;;;;;;;5.55;100.00;101417.19;5000919;28;19936;-86
2022/11/13 04:56:54;;;;;;;;;;;;;;;5.55;100.00;101416.41;5009874;28;19984;-86
2022/11/13 04:59:37;;;;;;;;;;;;;;;5.58;100.00;101413.69;5008758;28;19928;-86
2022/11/13 05:02:21;;;;;;;;;;;;;;;5.64;100.00;101408.69;5002124;28;19936;-86
2022/11/13 05:05:05;;;;;;;;;;;;;;;5.63;100.00;101407.88;5009303;28;19948;-86
2022/11/13 05:07:49;;;;;;;;;;;;;;;5.66;100.00;101411.88;5008180;28;19975;-86
2022/11/13 05:10:33;;;;;;;;;;;;;;;5.68;100.00;101408.75;5007910;28;19979;-86
2022/11/13 05:13:17;;;;;;;;;;;;;;;5.68;100.00;101408.75;5006994;28;19928;-86
2022/11/13 05:16:02;;;;;;;;;;;;;;;5.69;100.00;101407.59;5009331;28;20443;-86
2022/11/13 05:18:46;;;;;;;;;;;;;;;5.64;100.00;101409.50;5010106;28;19991;-87
2022/11/13 05:21:30;;;;;;;;;;;;;;;5.49;100.00;101393.94;5007687;28;19933;-86
2022/11/13 05:24:14;;;;;;;;;;;;;;;5.48;100.00;101400.59;5008705;28;19936;-86
2022/11/13 05:26:58;;;;;;;;;;;;;;;5.45;100.00;101406.03;5011134;28;19932;-86
2022/11/13 05:29:42;;;;;;;;;;;;;;;5.35;100.00;101415.69;5010814;28;20163;-86
2022/11/13 05:32:26;;;;;;;;;;;;;;;5.35;100.00;101401.16;5012499;28;19964;-86
2022/11/13 05:35:10;;;;;;;;;;;;;;;5.31;100.00;101405.78;5011272;28;19941;-86
2022/11/13 05:37:54;;;;;;;;;;;;;;;5.29;100.00;101414.44;5010445;28;20399;-86
2022/11/13 05:40:38;;;;;;;;;;;;;;;5.31;100.00;101406.59;5009342;28;19928;-86
2022/11/13 05:43:22;;;;;;;;;;;;;;;5.34;100.00;101405.84;5011305;28;20289;-86
2022/11/13 05:46:06;;;;;;;;;;;;;;;5.26;100.00;101401.38;4999822;28;20339;-86
2022/11/13 05:48:52;;;;;;;;;;;;;;;5.18;100.00;101402.44;5010440;28;20475;-86
2022/11/13 05:51:36;;;;;;;;;;;;;;;5.18;100.00;101407.16;5011870;28;19928;-86
2022/11/13 05:54:20;;;;;;;;;;;;;;;5.19;100.00;101409.53;5011876;28;19967;-86
2022/11/13 05:57:04;;;;;;;;;;;;;;;5.25;100.00;101402.56;5011660;28;19928;-86
2022/11/13 05:59:48;;;;;;;;;;;;;;;5.31;100.00;101417.59;5009899;28;20396;-86
2022/11/13 06:02:33;;;;;;;;;;;;;;;5.27;100.00;101414.00;5000699;28;19928;-86
2022/11/13 06:05:18;;;;;;;;;;;;;;;5.30;100.00;101421.50;5029804;28;20292;-86
2022/11/13 06:08:01;;;;;;;;;;;;;;;5.28;100.00;101418.34;5012691;28;20524;-86
2022/11/13 06:10:45;;;;;;;;;;;;;;;5.31;100.00;101428.59;5030212;28;19944;-86
2022/11/13 06:13:29;;;;;;;;;;;;;;;5.40;100.00;101415.41;5014629;28;19932;-86
2022/11/13 06:16:17;;;;;;;;;;;;;;;5.47;100.00;101431.22;5023931;28;20315;-86
2022/11/13 06:19:02;;;;;;;;;;;;;;;5.46;100.00;101432.41;5028401;28;19928;-85
2022/11/13 06:21:46;;;;;;;;;;;;;;;5.44;100.00;101430.00;5030735;28;20104;-86
2022/11/13 06:24:30;;;;;;;;;;;;;;;5.52;100.00;101431.72;5030138;28;19928;-86
2022/11/13 06:27:14;;;;;;;;;;;;;;;5.54;100.00;101436.84;5022802;28;19975;-85
2022/11/13 06:29:58;;;;;;;;;;;;;;;5.50;100.00;101436.78;5023262;28;19927;-86
2022/11/13 06:32:42;;;;;;;;;;;;;;;5.55;100.00;101439.22;5029500;28;19947;-86
2022/11/13 06:35:26;;;;;;;;;;;;;;;5.52;100.00;101439.97;5017883;28;19975;-86
2022/11/13 06:38:10;;;;;;;;;;;;;;;5.51;100.00;101441.13;5021500;28;20281;-86
2022/11/13 06:40:55;;;;;;;;;;;;;;;5.53;100.00;101436.06;5030429;28;20020;-86
2022/11/13 06:43:39;;;;;;;;;;;;;;;5.54;100.00;101432.13;5032884;28;19928;-86
2022/11/13 06:46:24;;;;;;;;;;;;;;;5.60;100.00;101422.41;5031430;28;19931;-85
2022/11/13 06:49:08;;;;;;;;;;;;;;;5.64;100.00;101426.00;5030312;28;19928;-85
2022/11/13 06:51:52;;;;;;;;;;;;;;;5.76;100.00;101426.94;5016785;28;19927;-85
2022/11/13 06:54:36;;;;;;;;;;;;;;;5.82;100.00;101425.47;5026989;28;19975;-85
2022/11/13 06:57:20;;;;;;;;;;;;;;;5.79;100.00;101435.25;5030114;28;20502;-86
2022/11/13 07:00:04;;;;;;;;;;;;;;;5.80;100.00;101433.31;5026920;28;19928;-86
2022/11/13 07:02:51;;;;;;;;;;;;;;;5.90;100.00;101427.22;5019503;28;20319;-85
2022/11/13 07:05:36;;;;;;;;;;;;;;;5.77;100.00;101428.53;5024855;28;19968;-85
2022/11/13 07:08:20;;;;;;;;;;;;;;;5.75;100.00;101436.38;5025113;28;20288;-85
2022/11/13 07:11:06;;;;;;;;;;;;;;;5.69;100.00;101432.34;5025474;28;19936;-86
2022/11/13 07:13:50;;;;;;;;;;;;;;;5.71;100.00;101443.78;5025575;28;20108;-87
2022/11/13 07:16:34;;;;;;;;;;;;;;;5.72;100.00;101439.88;5025764;28;19975;-88
2022/11/13 07:19:18;;;;;;;;;;;;;;;5.61;100.00;101437.75;5024388;28;20015;-85
2022/11/13 07:22:02;;;;;;;;;;;;;;;5.55;100.00;101433.72;5027391;28;19928;-87
2022/11/13 07:24:46;;;;;;;;;;;;;;;5.52;100.00;101434.47;5025043;28;20036;-88
2022/11/13 07:27:30;;;;;;;;;;;;;;;5.54;100.00;101429.38;5022610;28;19939;-88
2022/11/13 07:30:14;;;;;;;;;;;;;;;5.61;100.00;101437.75;5024935;28;20391;-87
2022/11/13 07:33:01;;;;;;;;;;;;;;;5.61;100.00;101437.75;5022730;28;19931;-87
2022/11/13 07:35:45;;;;;;;;;;;;;;;5.58;100.00;101432.97;5023474;28;19929;-88
2022/11/13 07:38:29;;;;;;;;;;;;;;;5.61;100.00;101445.22;5022928;28;19932;-88
2022/11/13 07:41:13;;;;;;;;;;;;;;;5.64;100.00;101447.22;5024991;28;19947;-88
2022/11/13 07:43:57;;;;;;;;;;;;;;;5.69;100.00;101452.44;5010914;28;19952;-88
2022/11/13 07:46:41;;;;;;;;;;;;;;;5.62;100.00;101455.84;5025513;28;19979;-87
2022/11/13 07:49:25;;;;;;;;;;;;;;;5.69;100.00;101451.63;5020826;28;19943;-86
2022/11/13 07:52:10;;;;;;;;;;;;;;;5.69;100.00;101446.91;5026834;28;19932;-86
2022/11/13 07:54:54;;;;;;;;;;;;;;;5.70;100.00;101447.72;5024660;28;19966;-86
2022/11/13 07:57:38;;;;;;;;;;;;;;;5.74;100.00;101462.34;5023832;28;20034;-88
2022/11/13 08:00:21;;;;;;;;;;;;;;;5.78;100.00;101460.44;5024613;28;19995;-86
2022/11/13 08:03:06;;;;;;;;;;;;;;;5.93;100.00;101459.50;5025315;28;20026;-85
2022/11/13 08:05:50;;;;;;;;;;;;;;;5.98;100.00;101460.00;5025437;28;20078;-85
2022/11/13 08:08:34;;;;;;;;;;;;;;;6.10;100.00;101464.47;5024803;28;19928;-86
2022/11/13 08:11:18;;;;;;;;;;;;;;;6.11;100.00;101452.28;5019751;28;19967;-86
2022/11/13 08:14:03;;;;;;;;;;;;;;;6.07;100.00;101451.44;5024343;28;19979;-85
2022/11/13 08:16:46;;;;;;;;;;;;;;;6.04;100.00;101460.44;5027027;28;19932;-86
2022/11/13 08:19:30;;;;;;;;;;;;;;;5.85;100.00;101452.28;5005577;28;21095;-87
2022/11/13 08:22:14;;;;;;;;;;;;;;;5.86;100.00;101459.38;5024295;28;19967;-86
2022/11/13 08:24:58;;;;;;;;;;;;;;;5.97;100.00;101460.34;5025021;28;19927;-87
2022/11/13 08:27:42;;;;;;;;;;;;;;;6.08;100.00;101450.28;5027694;28;19928;-87
2022/11/13 08:30:27;;;;;;;;;;;;;;;6.18;100.00;101449.63;5025869;28;20377;-86
2022/11/13 08:33:11;;;;;;;;;;;;;;;6.24;100.00;101448.13;5024658;28;19975;-87
2022/11/13 08:35:56;;;;;;;;;;;;;;;6.30;100.00;101446.66;5026007;28;19928;-88
2022/11/13 08:38:40;;;;;;;;;;;;;;;6.31;100.00;101452.97;5004627;28;19999;-88
2022/11/13 08:41:24;;;;;;;;;;;;;;;6.25;100.00;101454.44;5006498;28;19971;-88
2022/11/13 08:44:09;;;;;;;;;;;;;;;6.22;100.00;101450.47;5023346;28;20292;-87
2022/11/13 08:46:53;;;;;;;;;;;;;;;6.32;100.00;101458.09;5026011;28;19932;-88
2022/11/13 08:49:37;;;;;;;;;;;;;;;6.31;100.00;101448.22;5019539;28;19968;-90
2022/11/13 08:52:21;;;;;;;;;;;;;;;6.40;100.00;101456.22;5026338;28;19929;-89
2022/11/13 08:55:05;;;;;;;;;;;;;;;6.30;100.00;101462.38;5009650;28;19929;-89
2022/11/13 08:57:49;;;;;;;;;;;;;;;6.45;100.00;101458.66;5016668;28;19928;-90
2022/11/13 09:00:33;;;;;;;;;;;;;;;6.53;100.00;101460.31;5029867;28;20269;-90
2022/11/13 09:03:17;;;;;;;;;;;;;;;6.61;100.00;101467.50;5012524;28;20332;-90
2022/11/13 09:06:05;;;;;;;;;;;;;;;6.69;100.00;101457.34;5025423;28;19974;-90
2022/11/13 09:08:49;;;;;;;;;;;;;;;6.85;100.00;101460.69;5032899;28;20308;-90
2022/11/13 09:11:33;;;;;;;;;;;;;;;6.85;100.00;101469.75;5031921;28;20280;-90
2022/11/13 09:14:17;;;;;;;;;;;;;;;6.95;100.00;101460.03;5033604;28;19939;-90
2022/11/13 09:17:01;;;;;;;;;;;;;;;6.81;100.00;101454.34;5034680;28;19979;-89
2022/11/13 09:19:45;;;;;;;;;;;;;;;6.84;100.00;101459.09;5034648;28;19928;-90
2022/11/13 09:22:29;;;;;;;;;;;;;;;6.64;100.00;101460.44;5032987;28;19928;-89
2022/11/13 09:25:13;;;;;;;;;;;;;;;6.64;100.00;101454.94;5034268;28;19929;-90
2022/11/13 09:27:59;;;;;;;;;;;;;;;6.89;100.00;101453.25;5034483;28;19975;-89
2022/11/13 09:30:43;;;;;;;;;;;;;;;7.12;100.00;101445.59;5033627;28;19971;-90
2022/11/13 09:33:27;;;;;;;;;;;;;;;7.33;100.00;101448.56;5024342;28;19936;-90
2022/11/13 09:36:11;;;;;;;;;;;;;;;7.36;100.00;101427.72;5032658;28;19936;-90
2022/11/13 09:38:55;;;;;;;;;;;;;;;7.54;100.00;101425.06;5033937;28;19936;-90
2022/11/13 09:41:48;;;;;;;;;;;;;;;7.60;100.00;101418.03;5018265;28;19928;-91
2022/11/13 09:45:01;;;;;;;;;;;;;;;7.55;100.00;101410.09;5033222;28;19928;-90
2022/11/13 09:47:46;;;;;;;;;;;;;;;7.47;100.00;101415.56;5026874;28;19976;-90
2022/11/13 09:50:30;;;;;;;;;;;;;;;7.37;100.00;101413.50;5033887;28;21021;-90
2022/11/13 09:53:14;;;;;;;;;;;;;;;7.55;100.00;101410.09;5033327;28;19932;-91
2022/11/13 09:56:11;;;;;;;;;;;;;;;7.67;100.00;101407.03;5034179;28;20288;-89
2022/11/13 09:59:15;;;;;;;;;;;;;;;7.70;100.00;101400.72;5018548;28;19928;-89
2022/11/13 10:02:15;;;;;;;;;;;;;;;7.75;100.00;101403.94;5034347;28;19975;-88
2022/11/13 10:05:04;;;;;;;;;;;;;;;7.80;100.00;101394.50;5014691;28;20286;-89
2022/11/13 10:08:00;;;;;;;;;;;;;;;7.79;100.00;101390.16;5027337;28;19928;-89
2022/11/13 10:10:47;;;;;;;;;;;;;;;7.86;100.00;101373.59;5025883;28;19928;-89
2022/11/13 10:13:40;;;;;;;;;;;;;;;7.99;100.00;101377.63;5022190;28;19948;-89
2022/11/13 10:16:30;;;;;;;;;;;;;;;8.20;100.00;101372.22;5018654;28;19927;-89
2022/11/13 10:19:17;;;;;;;;;;;;;;;8.14;100.00;101375.72;5033306;28;19932;-89
2022/11/13 10:22:02;;;;;;;;;;;;;;;8.39;100.00;101360.84;5033752;28;19944;-89
2022/11/13 10:24:46;;;;;;;;;;;;;;;8.63;100.00;101351.03;5017784;28;19963;-89
2022/11/13 10:27:30;;;;;;;;;;;;;;;9.12;100.00;101353.06;5012274;28;20392;-89
2022/11/13 10:30:15;;;;;;;;;;;;;;;9.56;100.00;101354.63;5013171;28;20404;-90
2022/11/13 10:33:05;;;;;;;;;;;;;;;9.65;100.00;101352.22;4999060;28;20042;-89
2022/11/13 10:36:08;;;;;;;;;;;;;;;9.61;100.00;101345.91;5013580;28;19928;-89
2022/11/13 10:38:53;;;;;;;;;;;;;;;9.54;100.00;101346.72;5013513;28;20447;-90
2022/11/13 10:41:44;;;;;;;;;;;;;;;9.61;100.00;101351.44;5014813;28;19959;-89
2022/11/13 10:44:29;;;;;;;;;;;;;;;9.80;100.00;101339.91;5031868;28;20285;-90
2022/11/13 10:47:14;;;;;;;;;;;;;;;9.97;100.00;101336.31;5033036;28;20352;-89
2022/11/13 10:50:08;;;;;;;;;;;;;;;10.16;100.00;101326.75;5032471;28;20027;-89
2022/11/13 10:52:53;;;;;;;;;;;;;;;10.22;100.00;101325.16;5017765;28;19932;-90
2022/11/13 10:55:38;;;;;;;;;;;;;;;9.91;100.00;101321.28;5016575;28;19983;-89
2022/11/13 10:58:22;;;;;;;;;;;;;;;9.82;100.00;101321.72;5032273;28;19948;-89
2022/11/13 11:01:18;;;;;;;;;;;;;;;9.94;100.00;101311.38;5032448;28;20451;-90
2022/11/13 13:31:24;;;;;;;;;;;;;;;13.86;93.13;101139.47;5041001;23;19925;-88
2022/11/13 13:34:15;;;;;;;;;;;;;;;13.76;91.67;101139.69;5016004;28;19928;-88
2022/11/13 13:37:18;;;;;;;;;;;;;;;13.73;93.01;101127.41;5019693;28;19971;-88
2022/11/13 13:40:11;;;;;;;;;;;;;;;13.59;90.37;101119.34;5027471;28;19983;-88
2022/11/13 13:43:14;;;;;;;;;;;;;;;13.50;91.78;101119.94;5019164;28;19928;-88
2022/11/13 13:46:14;;;;;;;;;;;;;;;13.44;94.65;101120.84;5018836;28;20032;-87
2022/11/13 13:49:03;;;;;;;;;;;;;;;13.52;94.83;101116.69;5002630;28;19944;-88
2022/11/13 13:51:48;;;;;;;;;;;;;;;13.45;93.29;101114.88;5018921;28;20340;-89
2022/11/13 13:54:32;;;;;;;;;;;;;;;13.33;95.20;101118.31;5004765;28;19971;-87
2022/11/13 13:57:16;;;;;;;;;;;;;;;13.17;94.92;101117.44;5006344;28;19986;-89
2022/11/13 14:00:00;;;;;;;;;;;;;;;12.96;97.15;101113.84;5006034;28;20041;-88
2022/11/13 14:02:48;;;;;;;;;;;;;;;12.81;99.00;101115.34;4982552;28;19976;-88
2022/11/13 14:05:33;;;;;;;;;;;;;;;12.68;99.47;101119.94;4979485;28;19924;-88
2022/11/13 14:08:17;;;;;;;;;;;;;;;12.49;100.00;101112.34;4995452;28;19968;-88
2022/11/13 14:11:23;;;;;;;;;;;;;;;12.39;100.00;101110.50;5001532;28;19940;-88
2022/11/13 14:14:17;;;;;;;;;;;;;;;12.32;100.00;101114.22;4999808;28;19941;-87
2022/11/13 14:17:02;;;;;;;;;;;;;;;12.20;100.00;101114.81;5001826;28;19929;-87
2022/11/13 14:19:53;;;;;;;;;;;;;;;12.17;100.00;101112.88;5000701;28;19931;-88
2022/11/13 14:22:37;;;;;;;;;;;;;;;12.03;100.00;101113.88;4979620;28;19952;-87
2022/11/13 14:25:22;;;;;;;;;;;;;;;12.00;100.00;101120.28;4978942;28;19941;-88
2022/11/13 14:28:11;;;;;;;;;;;;;;;11.98;100.00;101116.34;4979357;28;19932;-88
2022/11/13 14:30:56;;;;;;;;;;;;;;;11.88;100.00;101111.75;4997903;28;19976;-87
2022/11/13 14:33:47;;;;;;;;;;;;;;;11.75;100.00;101114.31;4998545;28;19971;-87
2022/11/13 14:36:32;;;;;;;;;;;;;;;11.69;100.00;101100.03;4998502;28;20404;-86
2022/11/13 14:39:19;;;;;;;;;;;;;;;11.57;100.00;101102.59;4983893;28;19928;-87
2022/11/13 14:42:03;;;;;;;;;;;;;;;11.47;100.00;101093.22;4984809;28;19967;-87
2022/11/13 14:44:47;;;;;;;;;;;;;;;11.41;100.00;101089.31;4984793;28;20353;-88
2022/11/13 14:47:36;;;;;;;;;;;;;;;11.35;100.00;101076.31;4984815;28;19985;-88
2022/11/13 14:50:24;;;;;;;;;;;;;;;11.28;100.00;101079.22;5012035;28;20024;-88
2022/11/13 14:53:09;;;;;;;;;;;;;;;11.22;100.00;101082.44;4984462;28;19933;-88
2022/11/13 14:55:54;;;;;;;;;;;;;;;11.16;100.00;101088.88;4984231;28;20407;-88
2022/11/13 14:58:42;;;;;;;;;;;;;;;11.07;100.00;101075.50;4996330;28;20024;-88
2022/11/13 15:01:26;;;;;;;;;;;;;;;11.03;100.00;101080.31;4972573;28;20300;-88
2022/11/13 15:04:10;;;;;;;;;;;;;;;10.97;100.00;101081.16;4977650;28;20457;-87
2022/11/13 15:06:58;;;;;;;;;;;;;;;10.89;100.00;101080.47;5012247;28;19928;-86
2022/11/13 15:09:42;;;;;;;;;;;;;;;10.82;100.00;101080.53;5012016;28;19972;-87
2022/11/13 15:12:26;;;;;;;;;;;;;;;10.69;100.00;101077.50;4978412;28;20416;-87
2022/11/13 15:15:14;;;;;;;;;;;;;;;10.60;100.00;101070.84;4976986;28;20000;-86
2022/11/13 15:17:58;;;;;;;;;;;;;;;10.57;100.00;101069.69;4992470;28;19975;-86
2022/11/13 15:20:42;;;;;;;;;;;;;;;10.52;100.00;101077.66;4992582;28;20747;-86
2022/11/13 15:23:27;;;;;;;;;;;;;;;10.48;100.00;101072.16;5008999;28;20468;-86
2022/11/13 15:26:11;;;;;;;;;;;;;;;10.43;100.00;101074.63;4991770;28;19978;-87
2022/11/13 15:28:56;;;;;;;;;;;;;;;10.43;100.00;101074.63;4979879;28;19959;-86
2022/11/13 15:31:41;;;;;;;;;;;;;;;10.37;100.00;101070.69;4993367;28;20296;-87
2022/11/13 15:34:25;;;;;;;;;;;;;;;10.33;100.00;101081.03;4990990;28;19929;-86
2022/11/13 15:37:10;;;;;;;;;;;;;;;10.19;100.00;101082.72;4982440;28;20002;-86
2022/11/13 15:39:55;;;;;;;;;;;;;;;10.12;100.00;101080.00;4975908;28;20443;-84
2022/11/13 15:42:39;;;;;;;;;;;;;;;10.06;100.00;101067.00;4989558;28;19980;-85
2022/11/13 15:45:23;;;;;;;;;;;;;;;9.98;100.00;101082.88;5004655;28;20004;-86
2022/11/13 15:48:08;;;;;;;;;;;;;;;9.80;100.00;101083.00;5000832;28;20575;-89
2022/11/13 15:50:52;;;;;;;;;;;;;;;9.72;100.00;101080.69;5008617;28;19931;-86
2022/11/13 15:53:36;;;;;;;;;;;;;;;9.68;100.00;101086.25;5009613;28;20075;-88
2022/11/13 15:56:20;;;;;;;;;;;;;;;9.60;100.00;101087.50;5009866;28;19948;-87
2022/11/13 15:59:05;;;;;;;;;;;;;;;9.54;100.00;101085.56;5010098;28;19927;-88
2022/11/13 16:01:49;;;;;;;;;;;;;;;9.40;100.00;101085.63;4990728;28;19936;-89
2022/11/13 16:04:32;;;;;;;;;;;;;;;9.34;100.00;101088.81;4991568;28;19976;-88
2022/11/13 16:07:17;;;;;;;;;;;;;;;9.28;100.00;101095.97;4986694;28;19940;-88
2022/11/13 16:10:01;;;;;;;;;;;;;;;9.16;100.00;101101.16;4984076;28;19975;-89
2022/11/13 16:12:46;;;;;;;;;;;;;;;9.10;100.00;101100.78;4989657;28;20360;-88
2022/11/13 16:15:29;;;;;;;;;;;;;;;9.09;100.00;101096.47;4987915;28;19932;-89
2022/11/13 16:18:17;;;;;;;;;;;;;;;9.06;100.00;101100.00;4988920;28;20357;-89
2022/11/13 16:21:01;;;;;;;;;;;;;;;9.01;100.00;101108.75;4977485;28;20026;-88
2022/11/13 16:23:45;;;;;;;;;;;;;;;8.93;100.00;101101.66;4990111;28;20048;-89
2022/11/13 16:26:30;;;;;;;;;;;;;;;8.90;100.00;101092.16;4991374;28;19984;-89
2022/11/13 16:29:18;;;;;;;;;;;;;;;8.86;100.00;101085.84;4990567;28;20293;-89
2022/11/13 16:32:02;;;;;;;;;;;;;;;8.76;100.00;101097.75;4988240;28;20021;-88
2022/11/13 16:34:46;;;;;;;;;;;;;;;8.76;100.00;101096.94;4978833;28;20301;-89
2022/11/13 16:37:30;;;;;;;;;;;;;;;8.69;100.00;101102.50;4979583;28;19933;-88